Time;durP1;ratioP1;P1;durP2;ratioP2;P2;SDS_P1;SDS_P2;PMS_P1;PMS_P2;Temp;Humidity;BMP_temperature;BMP_pressure;BME280_temperature;BME280_humidity;BME280_pressure;Samples;Min_cycle;Max_cycle;Signal;HPM_P1;HPM_P2
2023/09/28 00:00:46;;;;;;;7.68;4.78;;;;;;;16.78;66.92;100364.66;10381545;28;20141;-56
2023/09/28 00:05:47;;;;;;;9.80;5.53;;;;;;;16.79;66.85;100366.34;10373940;28;20049;-54
2023/09/28 00:10:49;;;;;;;8.75;4.90;;;;;;;16.80;66.81;100359.03;10385642;28;20061;-55
2023/09/28 00:15:50;;;;;;;7.68;4.55;;;;;;;16.58;67.51;100369.38;10382175;28;20151;-57
2023/09/28 00:20:52;;;;;;;7.88;4.32;;;;;;;16.60;67.65;100365.38;10385570;28;20046;-56
2023/09/28 00:25:53;;;;;;;9.60;5.53;;;;;;;16.62;67.79;100362.47;10385238;28;20545;-56
2023/09/28 00:30:55;;;;;;;6.78;5.10;;;;;;;16.68;67.54;100374.34;10381246;28;20076;-56
2023/09/28 00:35:56;;;;;;;10.43;5.45;;;;;;;16.65;68.05;100362.03;10387887;28;20133;-57
2023/09/28 00:40:58;;;;;;;6.65;5.20;;;;;;;16.73;67.83;100359.06;10365947;28;20054;-57
2023/09/28 00:46:00;;;;;;;7.80;5.22;;;;;;;16.76;67.73;100355.09;10387428;28;20516;-57
2023/09/28 00:51:03;;;;;;;10.73;5.13;;;;;;;16.77;67.69;100345.91;10385862;28;20057;-57
2023/09/28 00:56:07;;;;;;;9.50;5.38;;;;;;;16.81;67.65;100352.56;10386099;28;20516;-57
2023/09/28 01:01:10;;;;;;;9.63;5.82;;;;;;;16.83;67.78;100359.47;10382410;28;20563;-56
2023/09/28 01:06:12;;;;;;;7.03;4.75;;;;;;;16.85;67.82;100349.22;10387413;28;20136;-56
2023/09/28 01:11:14;;;;;;;9.85;5.80;;;;;;;16.85;67.74;100351.94;10384640;28;20048;-57
2023/09/28 01:16:15;;;;;;;11.27;5.15;;;;;;;16.87;67.85;100348.19;10367504;28;20168;-56
2023/09/28 01:21:17;;;;;;;7.80;5.50;;;;;;;16.88;67.63;100345.22;10384224;28;20092;-55
2023/09/28 01:26:20;;;;;;;9.77;6.25;;;;;;;16.76;68.11;100372.19;10388250;28;20057;-56
2023/09/28 01:31:21;;;;;;;11.30;7.15;;;;;;;16.65;68.82;100365.56;10381238;28;20550;-55
2023/09/28 01:36:23;;;;;;;11.43;6.68;;;;;;;16.78;68.36;100359.22;10384945;28;20050;-55
2023/09/28 01:41:24;;;;;;;8.30;5.72;;;;;;;16.83;68.43;100358.63;10384435;28;20046;-55
2023/09/28 01:46:26;;;;;;;8.07;5.15;;;;;;;16.83;68.31;100362.19;10379181;28;20068;-54
2023/09/28 01:51:27;;;;;;;8.00;5.35;;;;;;;16.85;68.29;100351.94;10381001;28;20054;-55
2023/09/28 01:56:29;;;;;;;10.57;5.40;;;;;;;16.88;68.27;100353.38;10379535;28;20341;-55
2023/09/28 02:01:31;;;;;;;10.73;6.15;;;;;;;16.88;67.88;100347.94;10379066;28;20054;-55
2023/09/28 02:06:33;;;;;;;8.80;5.28;;;;;;;16.87;68.01;100364.47;10343477;28;20500;-57
2023/09/28 02:11:34;;;;;;;9.63;5.95;;;;;;;16.85;68.08;100362.78;10381127;28;20064;-57
2023/09/28 02:16:36;;;;;;;7.30;4.93;;;;;;;16.83;68.17;100367.59;10359880;28;20464;-55
2023/09/28 02:21:37;;;;;;;10.20;5.28;;;;;;;16.84;68.50;100368.44;10372917;28;20058;-55
2023/09/28 02:26:39;;;;;;;7.75;5.38;;;;;;;16.88;67.97;100368.84;10348363;28;20049;-55
2023/09/28 02:31:41;;;;;;;7.97;5.47;;;;;;;16.89;68.17;100370.53;10370533;28;20405;-55
2023/09/28 02:36:43;;;;;;;10.45;5.32;;;;;;;16.93;68.21;100382.59;10383289;28;20053;-55
2023/09/28 02:41:44;;;;;;;7.07;5.05;;;;;;;16.95;68.04;100392.19;10378202;28;20067;-55
2023/09/28 02:46:45;;;;;;;8.20;5.13;;;;;;;16.97;68.06;100364.81;10385218;28;20058;-54
2023/09/28 02:51:48;;;;;;;20.48;12.02;;;;;;;16.96;68.03;100364.00;10362593;28;20515;-55
2023/09/28 02:56:50;;;;;;;9.07;6.90;;;;;;;16.59;69.21;100396.28;10378251;28;20056;-54
2023/09/28 03:01:52;;;;;;;7.60;6.05;;;;;;;16.61;69.28;100387.94;10380129;28;20050;-54
2023/09/28 03:06:53;;;;;;;8.05;6.00;;;;;;;16.71;69.06;100398.34;10361901;28;20412;-57
2023/09/28 03:11:55;;;;;;;12.35;6.15;;;;;;;16.79;68.98;100408.97;10379861;28;20045;-55
2023/09/28 03:16:56;;;;;;;10.45;6.05;;;;;;;16.81;69.04;100405.00;10383616;28;20091;-54
2023/09/28 03:21:58;;;;;;;10.18;6.88;;;;;;;16.87;68.61;100419.59;10379211;28;20125;-53
2023/09/28 03:27:00;;;;;;;8.88;6.93;;;;;;;16.88;68.93;100423.13;10364621;28;20133;-54
2023/09/28 03:32:11;;;;;;;9.63;7.00;;;;;;;16.95;68.67;100421.25;10381804;28;20085;-54
2023/09/28 03:37:18;;;;;;;13.40;7.05;;;;;;;16.98;68.95;100408.06;10366357;28;20053;-53
2023/09/28 03:42:20;;;;;;;13.45;7.95;;;;;;;16.97;68.91;100402.84;10388910;28;20081;-54
2023/09/28 03:47:21;;;;;;;13.68;7.90;;;;;;;17.01;68.93;100409.50;10386845;28;20061;-54
2023/09/28 03:52:22;;;;;;;14.55;8.48;;;;;;;16.99;68.86;100398.84;10385897;28;20054;-53
2023/09/28 03:57:24;;;;;;;13.43;9.45;;;;;;;16.91;69.47;100406.44;10364412;28;20056;-54
2023/09/28 04:02:27;;;;;;;14.88;8.50;;;;;;;16.93;69.47;100421.44;10388592;28;20048;-54
2023/09/28 04:07:29;;;;;;;16.02;9.18;;;;;;;16.87;69.44;100414.16;10383061;28;20053;-54
2023/09/28 04:12:30;;;;;;;18.48;8.65;;;;;;;16.80;69.91;100411.44;10379881;28;20550;-54
2023/09/28 04:17:34;;;;;;;12.98;8.07;;;;;;;16.72;69.92;100433.41;10387491;28;20050;-54
2023/09/28 04:22:36;;;;;;;19.10;8.60;;;;;;;16.62;69.95;100428.41;10365591;28;20045;-56
2023/09/28 04:27:38;;;;;;;11.70;8.35;;;;;;;16.57;70.13;100424.72;10387312;28;20056;-54
2023/09/28 04:32:39;;;;;;;14.57;9.25;;;;;;;16.60;69.99;100416.13;10384261;28;20132;-54
2023/09/28 04:37:41;;;;;;;14.20;9.02;;;;;;;16.55;70.03;100424.91;10379711;28;20046;-55
2023/09/28 04:42:43;;;;;;;16.00;8.65;;;;;;;16.43;69.85;100419.31;10382676;28;20148;-54
2023/09/28 04:47:44;;;;;;;12.75;8.48;;;;;;;16.41;69.79;100426.84;10386342;28;20041;-54
2023/09/28 04:52:46;;;;;;;18.48;10.07;;;;;;;16.35;70.22;100434.97;10382547;28;20082;-56
2023/09/28 04:57:47;;;;;;;16.08;8.05;;;;;;;16.30;70.29;100434.78;10389549;28;20061;-55
2023/09/28 05:02:49;;;;;;;14.70;7.90;;;;;;;16.24;70.09;100433.75;10384388;28;20054;-55
2023/09/28 05:07:52;;;;;;;11.23;8.05;;;;;;;16.21;70.14;100469.41;10387111;28;20135;-56
2023/09/28 05:12:53;;;;;;;11.27;7.55;;;;;;;16.12;70.11;100467.97;10383700;28;20076;-55
2023/09/28 05:17:55;;;;;;;12.48;8.05;;;;;;;16.08;70.03;100464.84;10420779;28;20049;-55
2023/09/28 05:22:57;;;;;;;13.68;8.52;;;;;;;15.91;70.50;100475.25;10424468;28;20580;-58
2023/09/28 05:27:58;;;;;;;12.18;7.68;;;;;;;15.78;70.88;100464.44;10425430;28;20052;-60
2023/09/28 05:33:00;;;;;;;19.92;9.80;;;;;;;15.93;70.58;100462.34;10429311;28;20045;-58
2023/09/28 05:38:02;;;;;;;13.20;7.47;;;;;;;15.94;70.24;100461.31;10425707;28;20065;-59
2023/09/28 05:43:03;;;;;;;13.05;8.85;;;;;;;15.98;70.24;100467.16;10426006;28;20076;-59
2023/09/28 05:48:05;;;;;;;12.75;7.60;;;;;;;15.98;70.38;100480.72;10423083;28;20052;-59
2023/09/28 05:53:06;;;;;;;13.57;7.82;;;;;;;15.97;70.08;100474.44;10427829;28;20049;-59
2023/09/28 05:58:08;;;;;;;13.82;8.38;;;;;;;15.98;69.82;100488.84;10426460;28;20064;-59
2023/09/28 06:03:09;;;;;;;15.25;9.15;;;;;;;15.97;69.97;100490.69;10420754;28;20050;-58
2023/09/28 06:08:11;;;;;;;14.80;8.57;;;;;;;15.93;70.37;100484.03;10423372;28;20110;-58
2023/09/28 06:13:13;;;;;;;16.67;8.70;;;;;;;15.95;70.32;100486.53;10422142;28;20073;-59
2023/09/28 06:18:14;;;;;;;14.70;8.60;;;;;;;15.97;70.17;100485.28;10427709;28;20061;-58
2023/09/28 06:23:17;;;;;;;14.93;9.02;;;;;;;16.02;70.34;100484.66;10424821;28;20045;-60
2023/09/28 06:28:18;;;;;;;22.92;10.50;;;;;;;16.06;70.44;100494.06;10423940;28;20819;-60
2023/09/28 06:33:26;;;;;;;13.10;9.18;;;;;;;15.94;70.74;100491.13;10422102;28;20499;-57
2023/09/28 06:38:27;;;;;;;15.35;8.90;;;;;;;16.12;70.50;100506.78;10422522;28;20523;-58
2023/09/28 06:43:29;;;;;;;18.00;9.05;;;;;;;16.26;70.22;100494.03;10422727;28;20055;-60
2023/09/28 06:48:33;;;;;;;18.73;7.95;;;;;;;16.42;70.35;100499.03;10424014;28;20056;-60
2023/09/28 06:53:35;;;;;;;22.02;10.15;;;;;;;16.60;70.13;100487.50;10426218;28;20045;-60
2023/09/28 06:58:36;;;;;;;19.75;10.43;;;;;;;16.72;70.18;100492.28;10423439;28;20079;-60
2023/09/28 07:03:38;;;;;;;18.38;10.18;;;;;;;16.94;70.08;100501.03;10402402;28;20420;-58
2023/09/28 07:08:39;;;;;;;14.65;9.77;;;;;;;17.18;69.84;100521.19;10417403;28;20507;-58
2023/09/28 07:13:41;;;;;;;15.82;9.98;;;;;;;17.39;70.18;100529.03;10427189;28;20052;-59
2023/09/28 07:18:42;;;;;;;19.40;10.30;;;;;;;17.59;70.27;100523.50;10422907;28;20382;-59
2023/09/28 07:23:44;;;;;;;14.18;9.95;;;;;;;17.84;70.06;100525.47;10420133;28;20558;-59
2023/09/28 07:28:45;;;;;;;16.02;10.07;;;;;;;17.98;70.00;100540.66;10419628;28;20041;-58
2023/09/28 07:33:48;;;;;;;13.95;9.93;;;;;;;18.17;70.03;100555.16;10425997;28;20040;-58
2023/09/28 07:38:50;;;;;;;16.70;11.10;;;;;;;18.33;70.10;100564.66;10421762;28;20048;-59
2023/09/28 07:43:51;;;;;;;22.88;11.23;;;;;;;18.56;69.66;100568.66;10415344;28;20065;-59
2023/09/28 07:48:56;;;;;;;16.02;10.85;;;;;;;18.79;69.13;100557.13;10422554;28;20049;-59
2023/09/28 07:53:57;;;;;;;17.48;10.07;;;;;;;19.02;68.86;100551.88;10425433;28;20045;-58
2023/09/28 07:58:59;;;;;;;14.25;9.57;;;;;;;19.24;68.31;100543.25;10418063;28;20041;-59
2023/09/28 08:04:01;;;;;;;12.50;9.13;;;;;;;19.43;68.07;100552.22;10420006;28;20048;-59
2023/09/28 08:09:02;;;;;;;14.02;10.57;;;;;;;19.60;67.79;100557.88;10420981;28;20045;-59
2023/09/28 08:14:05;;;;;;;16.40;10.18;;;;;;;19.77;67.11;100558.94;10418359;28;20069;-59
2023/09/28 08:19:06;;;;;;;14.90;9.88;;;;;;;19.94;66.72;100561.81;10418696;28;20589;-59
2023/09/28 08:24:10;;;;;;;14.90;10.30;;;;;;;20.03;66.41;100566.97;10424344;28;20056;-58
2023/09/28 08:29:12;;;;;;;15.27;9.55;;;;;;;20.23;65.89;100561.19;10427523;28;20080;-57
2023/09/28 08:34:13;;;;;;;12.18;8.30;;;;;;;20.37;65.80;100552.53;10424713;28;20055;-57
2023/09/28 08:39:25;;;;;;;14.95;9.15;;;;;;;20.55;65.37;100551.59;10423607;28;20055;-58
2023/09/28 08:44:29;;;;;;;13.77;8.88;;;;;;;20.67;64.95;100557.09;10425643;28;20049;-58
2023/09/28 08:49:34;;;;;;;13.98;9.05;;;;;;;20.81;64.19;100544.00;10425885;28;20060;-57
2023/09/28 08:54:36;;;;;;;10.40;8.20;;;;;;;20.98;63.78;100558.59;10433347;28;20049;-57
2023/09/28 08:59:39;;;;;;;13.38;7.68;;;;;;;21.16;63.31;100548.59;10427108;28;20716;-58
2023/09/28 09:04:42;;;;;;;14.88;7.72;;;;;;;21.31;62.98;100559.84;10428265;28;20060;-56
2023/09/28 09:09:45;;;;;;;11.52;7.00;;;;;;;21.48;62.15;100556.38;10431275;28;20143;-57
2023/09/28 09:14:47;;;;;;;10.85;6.82;;;;;;;21.61;61.53;100577.16;10426523;28;20111;-57
2023/09/28 09:19:49;;;;;;;12.48;6.75;;;;;;;21.78;61.50;100580.75;10422621;28;20057;-57
2023/09/28 09:24:55;;;;;;;8.48;6.38;;;;;;;21.85;61.21;100572.41;10420124;28;20052;-56
2023/09/28 09:30:00;;;;;;;10.07;6.35;;;;;;;22.01;60.51;100565.31;10424474;28;20052;-54
2023/09/28 09:35:02;;;;;;;10.15;4.95;;;;;;;22.20;59.74;100554.97;10424694;28;20052;-55
2023/09/28 09:40:12;;;;;;;10.82;4.53;;;;;;;22.36;59.07;100560.47;10425982;28;20049;-57
2023/09/28 09:45:14;;;;;;;6.18;4.22;;;;;;;22.57;58.42;100563.50;10423200;28;20133;-56
2023/09/28 09:50:17;;;;;;;9.95;5.18;;;;;;;22.74;58.06;100558.03;10429275;28;20041;-56
2023/09/28 09:55:20;;;;;;;6.82;4.45;;;;;;;22.90;57.71;100564.56;10428530;28;20507;-58
2023/09/28 10:00:23;;;;;;;5.10;4.60;;;;;;;22.86;57.37;100556.00;10421721;28;20053;-58
2023/09/28 10:05:27;;;;;;;6.80;4.15;;;;;;;23.08;56.61;100552.50;10425703;28;20052;-57
2023/09/28 10:10:30;;;;;;;6.40;3.72;;;;;;;23.36;56.25;100548.72;10420720;28;20159;-58
2023/09/28 10:15:33;;;;;;;6.95;3.80;;;;;;;23.54;55.72;100550.31;10427064;28;20084;-58
2023/09/28 10:20:35;;;;;;;6.15;3.85;;;;;;;23.87;55.31;100551.22;10420434;28;20081;-59
2023/09/28 10:25:53;;;;;;;6.45;4.38;;;;;;;24.23;54.67;100549.66;10424421;28;20130;-58
2023/09/28 10:31:07;;;;;;;4.90;3.28;;;;;;;24.72;53.61;100537.63;10418914;28;20052;-57
2023/09/28 10:36:12;;;;;;;9.75;3.28;;;;;;;24.91;52.95;100543.53;10437196;28;20057;-59
2023/09/28 10:41:16;;;;;;;5.53;3.20;;;;;;;24.91;52.68;100533.34;10424692;28;20038;-58
2023/09/28 10:46:18;;;;;;;5.40;2.75;;;;;;;25.16;52.28;100526.31;10422782;28;20143;-58
2023/09/28 10:51:20;;;;;;;4.63;2.83;;;;;;;25.32;51.56;100538.25;10426366;28;20111;-60
2023/09/28 10:56:21;;;;;;;2.88;2.25;;;;;;;25.40;51.10;100534.97;10420097;28;20045;-58
2023/09/28 11:01:22;;;;;;;5.68;2.33;;;;;;;25.28;50.41;100540.72;10426005;28;20050;-60
2023/09/28 11:06:24;;;;;;;4.55;2.28;;;;;;;25.53;50.06;100547.38;10421413;28;20052;-59
2023/09/28 11:11:26;;;;;;;8.90;2.17;;;;;;;25.88;49.23;100541.13;10423479;28;20045;-59
2023/09/28 11:16:28;;;;;;;3.60;1.92;;;;;;;26.51;48.44;100531.78;10420898;28;20872;-59
2023/09/28 11:21:30;;;;;;;2.67;1.70;;;;;;;27.15;46.99;100515.63;10424924;28;20073;-58
2023/09/28 11:26:33;;;;;;;3.85;1.42;;;;;;;27.59;45.69;100521.22;10425274;28;20054;-59
2023/09/28 11:31:37;;;;;;;4.82;1.40;;;;;;;27.64;45.49;100514.81;10419021;28;20092;-59
2023/09/28 11:36:40;;;;;;;3.20;1.40;;;;;;;27.82;45.13;100516.09;10424873;28;20064;-59
2023/09/28 11:41:59;;;;;;;5.10;1.17;;;;;;;27.90;44.47;100509.97;10421970;28;20050;-59
2023/09/28 11:47:01;;;;;;;4.82;1.00;;;;;;;27.66;44.27;100512.59;10420872;28;20057;-59
2023/09/28 11:52:04;;;;;;;3.03;1.27;;;;;;;27.69;44.25;100501.00;10424125;28;20095;-59
2023/09/28 11:57:07;;;;;;;4.57;1.50;;;;;;;28.07;43.44;100490.22;10419105;28;20527;-60
2023/09/28 12:02:09;;;;;;;2.00;1.40;;;;;;;28.83;41.49;100483.09;10433563;28;20056;-59
2023/09/28 12:07:11;;;;;;;4.00;1.58;;;;;;;28.95;41.74;100485.47;10425232;28;20037;-59
2023/09/28 12:12:12;;;;;;;2.55;1.13;;;;;;;29.00;41.58;100485.38;10427323;28;20038;-56
2023/09/28 12:17:14;;;;;;;3.30;1.35;;;;;;;28.90;41.56;100504.88;10429145;28;20053;-56
2023/09/28 12:22:16;;;;;;;4.13;1.70;;;;;;;29.13;40.96;100481.09;10431669;28;20053;-55
2023/09/28 12:27:19;;;;;;;2.10;1.20;;;;;;;29.46;40.73;100472.88;10428739;28;20061;-56
2023/09/28 12:32:20;;;;;;;3.70;1.83;;;;;;;29.40;40.37;100476.84;10426396;28;20065;-56
2023/09/28 12:37:22;;;;;;;5.03;1.15;;;;;;;29.01;40.47;100477.88;10428919;28;20625;-56
2023/09/28 12:42:24;;;;;;;3.97;1.30;;;;;;;29.26;41.20;100472.03;10429217;28;20064;-57
2023/09/28 12:47:26;;;;;;;5.40;1.00;;;;;;;29.66;39.98;100464.25;10423241;28;20053;-56
2023/09/28 12:52:28;;;;;;;5.72;1.20;;;;;;;29.76;39.72;100451.38;10432846;28;20045;-59
2023/09/28 12:57:30;;;;;;;1.77;1.05;;;;;;;30.07;39.17;100454.44;10429803;28;20053;-57
2023/09/28 13:02:31;;;;;;;4.45;1.50;;;;;;;29.98;39.34;100450.75;10424354;28;20056;-56
2023/09/28 13:07:34;;;;;;;4.72;1.08;;;;;;;30.31;38.65;100453.50;10427651;28;20057;-57
2023/09/28 13:12:35;;;;;;;3.40;1.30;;;;;;;30.41;38.03;100447.75;10419433;28;20053;-55
2023/09/28 13:17:38;;;;;;;3.85;0.90;;;;;;;30.43;37.44;100446.34;10429954;28;20052;-57
2023/09/28 13:22:39;;;;;;;2.20;1.17;;;;;;;30.37;37.72;100446.72;10425446;28;20060;-58
2023/09/28 13:27:41;;;;;;;4.55;1.90;;;;;;;30.63;37.02;100444.28;10430374;28;20045;-59
2023/09/28 13:32:42;;;;;;;2.05;0.85;;;;;;;30.47;36.87;100437.38;10433495;28;20045;-58
2023/09/28 13:37:44;;;;;;;1.85;0.98;;;;;;;30.47;37.59;100429.91;10423748;28;20080;-59
2023/09/28 13:42:46;;;;;;;3.15;0.95;;;;;;;30.44;37.10;100431.31;10429204;28;20059;-58
2023/09/28 13:47:47;;;;;;;1.92;0.82;;;;;;;30.64;36.61;100429.25;10426296;28;20057;-58
2023/09/28 13:52:49;;;;;;;4.78;0.95;;;;;;;30.87;36.51;100434.91;10422180;28;20539;-58
2023/09/28 13:57:51;;;;;;;2.10;1.25;;;;;;;31.23;35.77;100430.22;10426545;28;20045;-58
2023/09/28 14:02:54;;;;;;;5.03;1.10;;;;;;;31.57;35.31;100430.84;10417866;28;20065;-58
2023/09/28 14:07:56;;;;;;;5.60;1.42;;;;;;;32.51;34.54;100428.97;10422726;28;20048;-59
2023/09/28 14:12:58;;;;;;;3.75;1.30;;;;;;;32.90;33.58;100421.72;10424159;28;20492;-58
2023/09/28 14:17:59;;;;;;;4.68;1.52;;;;;;;32.73;34.14;100427.25;10429620;28;20060;-58
2023/09/28 14:23:01;;;;;;;2.67;0.90;;;;;;;32.32;33.98;100425.59;10423081;28;20044;-58
2023/09/28 14:28:02;;;;;;;4.63;1.08;;;;;;;32.10;33.74;100424.50;10423253;28;20034;-64
2023/09/28 14:33:04;;;;;;;4.35;0.80;;;;;;;31.59;34.69;100409.94;10420783;28;20136;-59
2023/09/28 14:38:06;;;;;;;1.73;0.95;;;;;;;31.24;34.96;100408.81;10421409;28;20041;-59
2023/09/28 14:43:07;;;;;;;2.30;0.80;;;;;;;31.12;35.01;100411.31;10426852;28;20048;-59
2023/09/28 14:48:09;;;;;;;2.63;0.95;;;;;;;30.95;35.25;100401.72;10424899;28;20396;-63
2023/09/28 14:53:12;;;;;;;2.05;0.98;;;;;;;30.92;36.22;100399.53;10425454;28;20530;-62
2023/09/28 14:58:14;;;;;;;0.98;0.85;;;;;;;30.84;36.02;100403.84;10428393;28;20698;-58
2023/09/28 15:03:15;;;;;;;5.13;0.75;;;;;;;30.90;36.24;100399.03;10419706;28;20535;-59
2023/09/28 15:08:17;;;;;;;2.50;0.68;;;;;;;30.63;36.22;100394.34;10423246;28;20079;-60
2023/09/28 15:13:19;;;;;;;4.75;1.00;;;;;;;30.74;36.39;100400.47;10421680;28;20476;-59
2023/09/28 15:18:20;;;;;;;1.17;0.80;;;;;;;30.62;35.91;100387.94;10426469;28;20068;-59
2023/09/28 15:23:22;;;;;;;1.88;1.00;;;;;;;30.70;36.45;100391.13;10422362;28;20124;-59
2023/09/28 15:28:23;;;;;;;4.32;0.90;;;;;;;30.71;36.32;100401.09;10446925;28;20112;-59
2023/09/28 15:33:25;;;;;;;3.88;1.00;;;;;;;30.53;36.89;100394.53;10410584;28;21509;-59
2023/09/28 15:38:27;;;;;;;2.75;1.00;;;;;;;30.67;36.94;100398.13;10422044;28;20514;-59
2023/09/28 15:43:32;;;;;;;1.95;0.85;;;;;;;30.48;37.03;100392.69;10433514;28;20049;-57
2023/09/28 15:48:33;;;;;;;4.53;0.97;;;;;;;30.25;37.04;100378.69;10408210;28;20041;-57
2023/09/28 15:53:35;;;;;;;4.07;1.30;;;;;;;30.06;37.67;100377.97;10431987;28;20505;-58
2023/09/28 15:58:36;;;;;;;4.43;1.40;;;;;;;29.82;38.35;100364.28;10438022;28;20079;-57
2023/09/28 16:03:38;;;;;;;3.83;1.30;;;;;;;29.54;38.86;100374.41;10428605;28;20048;-58
2023/09/28 16:08:40;;;;;;;2.97;2.15;;;;;;;29.28;39.73;100380.34;10409944;28;20056;-58
2023/09/28 16:13:42;;;;;;;4.00;0.93;;;;;;;29.08;39.74;100382.28;10428812;28;20049;-57
2023/09/28 16:18:44;;;;;;;2.17;0.95;;;;;;;28.87;39.93;100384.53;10416951;28;20045;-58
2023/09/28 16:23:45;;;;;;;5.75;0.95;;;;;;;28.58;40.06;100395.69;10425289;28;20045;-57
2023/09/28 16:28:47;;;;;;;3.45;1.10;;;;;;;28.41;41.19;100385.06;10437873;28;20053;-57
2023/09/28 16:33:48;;;;;;;5.63;1.65;;;;;;;28.18;42.19;100392.28;10425514;28;20044;-57
2023/09/28 16:38:50;;;;;;;7.85;1.92;;;;;;;27.93;42.61;100398.06;10426621;28;20944;-57
2023/09/28 16:43:51;;;;;;;4.40;2.17;;;;;;;27.67;43.15;100398.25;10426009;28;20069;-58
2023/09/28 16:48:54;;;;;;;4.28;2.40;;;;;;;27.43;44.16;100400.91;10435336;28;20517;-57
2023/09/28 16:53:55;;;;;;;8.13;2.58;;;;;;;27.14;44.95;100392.53;10440554;28;20454;-58
2023/09/28 16:58:57;;;;;;;5.32;3.13;;;;;;;26.85;45.62;100393.25;10414596;28;20049;-58
2023/09/28 17:03:58;;;;;;;4.70;1.65;;;;;;;26.54;45.68;100393.38;10430430;28;20054;-58
2023/09/28 17:09:00;;;;;;;2.72;1.30;;;;;;;26.26;47.17;100394.81;10432375;28;20073;-58
2023/09/28 17:14:02;;;;;;;4.30;2.10;;;;;;;25.99;47.37;100395.16;10432536;28;20407;-57
2023/09/28 17:19:04;;;;;;;4.68;1.83;;;;;;;25.74;47.69;100396.81;10427095;28;20049;-57
2023/09/28 17:24:06;;;;;;;6.80;3.33;;;;;;;25.52;48.42;100386.88;10426533;28;20052;-58
2023/09/28 17:29:07;;;;;;;8.13;3.10;;;;;;;25.30;49.47;100389.91;10432086;28;20049;-58
2023/09/28 17:34:10;;;;;;;8.05;2.20;;;;;;;25.06;50.83;100392.31;10427297;28;20480;-58
2023/09/28 17:39:11;;;;;;;6.78;2.38;;;;;;;24.78;51.22;100398.28;10427883;28;20057;-57
2023/09/28 17:44:13;;;;;;;4.60;2.42;;;;;;;24.53;52.12;100388.84;10429727;28;20041;-57
2023/09/28 17:49:15;;;;;;;4.63;2.85;;;;;;;24.31;52.44;100402.72;10427010;28;20056;-58
2023/09/28 17:54:16;;;;;;;5.90;2.90;;;;;;;24.20;52.79;100398.25;10432585;28;20048;-57
2023/09/28 17:59:18;;;;;;;7.25;2.35;;;;;;;24.01;53.13;100412.38;10424090;28;20142;-58
2023/09/28 18:04:19;;;;;;;5.63;2.28;;;;;;;23.85;53.71;100411.44;10429518;28;20053;-57
2023/09/28 18:09:21;;;;;;;4.28;1.85;;;;;;;23.73;54.27;100410.78;10429484;28;20076;-56
2023/09/28 18:14:22;;;;;;;6.43;2.58;;;;;;;23.54;54.72;100424.09;10429130;28;20112;-57
2023/09/28 18:19:24;;;;;;;4.28;2.13;;;;;;;23.44;55.05;100430.31;10427746;28;20061;-57
2023/09/28 18:24:25;;;;;;;8.52;3.85;;;;;;;23.31;55.26;100436.19;10426489;28;20740;-58
2023/09/28 18:29:27;;;;;;;5.78;3.10;;;;;;;23.17;55.63;100436.59;10427510;28;20071;-56
2023/09/28 18:34:31;;;;;;;4.65;2.35;;;;;;;23.04;55.97;100447.13;10423128;28;20830;-57
2023/09/28 18:39:33;;;;;;;7.40;3.17;;;;;;;22.89;56.19;100451.34;10420305;28;20049;-57
2023/09/28 18:44:36;;;;;;;7.75;2.72;;;;;;;22.73;56.65;100452.22;10424799;28;20064;-56
2023/09/28 18:49:37;;;;;;;8.10;3.00;;;;;;;22.60;57.02;100458.06;10422441;28;20048;-56
2023/09/28 18:54:41;;;;;;;6.97;3.08;;;;;;;22.46;57.43;100457.63;10423388;28;20424;-56
2023/09/28 18:59:44;;;;;;;8.55;3.65;;;;;;;22.30;57.93;100459.31;10424272;28;20052;-56
2023/09/28 19:04:45;;;;;;;5.07;2.78;;;;;;;22.15;58.61;100466.16;10425760;28;20045;-56
2023/09/28 19:09:48;;;;;;;6.50;2.67;;;;;;;22.02;58.93;100473.88;10428766;28;20131;-56
2023/09/28 19:14:49;;;;;;;4.82;2.60;;;;;;;21.88;59.07;100473.38;10426550;28;20049;-57
2023/09/28 19:19:52;;;;;;;4.50;2.50;;;;;;;21.71;59.60;100474.19;10424802;28;20395;-57
2023/09/28 19:24:54;;;;;;;4.15;2.70;;;;;;;21.61;59.91;100474.03;10429853;28;20124;-58
2023/09/28 19:29:56;;;;;;;5.75;3.58;;;;;;;21.44;60.29;100473.16;10428591;28;20407;-58
2023/09/28 19:34:57;;;;;;;8.00;3.30;;;;;;;21.37;60.76;100474.09;10409982;28;20041;-57
2023/09/28 19:39:59;;;;;;;4.63;3.22;;;;;;;21.24;61.16;100479.03;10424490;28;20053;-57
2023/09/28 19:45:00;;;;;;;8.02;2.85;;;;;;;21.18;60.87;100487.13;10405275;28;20046;-58
2023/09/28 19:50:02;;;;;;;6.18;3.00;;;;;;;21.12;61.49;100481.81;10404887;28;20046;-58
2023/09/28 19:55:03;;;;;;;6.18;3.40;;;;;;;21.05;61.39;100487.44;10416706;28;20397;-57
2023/09/28 20:00:07;;;;;;;5.68;3.58;;;;;;;20.66;62.44;100481.69;10426103;28;20050;-58
2023/09/28 20:05:10;;;;;;;5.55;4.18;;;;;;;20.58;62.59;100484.75;10420303;28;20488;-59
2023/09/28 20:10:12;;;;;;;6.80;3.45;;;;;;;20.57;62.85;100489.34;10416513;28;20049;-58
2023/09/28 20:15:14;;;;;;;7.40;4.22;;;;;;;20.54;62.87;100487.13;10422254;28;20053;-57
2023/09/28 20:20:15;;;;;;;5.60;3.65;;;;;;;20.57;62.92;100481.16;10425902;28;20061;-58
2023/09/28 20:25:17;;;;;;;8.90;3.67;;;;;;;20.53;63.03;100479.16;10421969;28;20076;-58
2023/09/28 20:30:18;;;;;;;7.38;3.72;;;;;;;20.44;62.75;100478.72;10424999;28;20522;-58
2023/09/28 20:35:20;;;;;;;12.88;3.72;;;;;;;20.36;63.52;100484.53;10428808;28;20056;-58
2023/09/28 20:40:21;;;;;;;10.20;3.20;;;;;;;20.37;63.40;100487.00;10426694;28;20068;-57
2023/09/28 20:45:23;;;;;;;7.03;4.18;;;;;;;20.36;63.26;100488.09;10434267;28;20102;-55
2023/09/28 20:50:24;;;;;;;6.30;3.78;;;;;;;20.29;63.51;100478.34;10425847;28;20056;-54
2023/09/28 20:55:26;;;;;;;6.45;3.75;;;;;;;20.28;63.77;100482.97;10423330;28;20053;-55
2023/09/28 21:00:27;;;;;;;6.38;3.38;;;;;;;20.09;64.12;100486.88;10408878;28;20424;-56
2023/09/28 21:05:30;;;;;;;4.70;3.50;;;;;;;20.09;64.22;100484.16;10431888;28;20056;-55
2023/09/28 21:10:31;;;;;;;6.85;3.10;;;;;;;20.09;64.10;100474.06;10426543;28;20049;-55
2023/09/28 21:15:33;;;;;;;8.70;3.13;;;;;;;20.07;63.98;100472.63;10426922;28;20068;-56
2023/09/28 21:20:34;;;;;;;7.28;3.17;;;;;;;20.06;63.73;100469.06;10423260;28;20067;-56
2023/09/28 21:25:36;;;;;;;6.20;3.70;;;;;;;20.03;63.91;100475.00;10426252;28;20068;-55
2023/09/28 21:30:37;;;;;;;8.13;3.03;;;;;;;20.01;64.18;100474.41;10428929;28;20045;-57
2023/09/28 21:35:39;;;;;;;6.30;2.55;;;;;;;20.00;64.01;100480.91;10425915;28;20058;-56
2023/09/28 21:40:41;;;;;;;5.40;3.13;;;;;;;19.93;64.51;100483.78;10424460;28;20385;-57
2023/09/28 21:45:42;;;;;;;5.32;3.25;;;;;;;19.94;64.33;100493.59;10427121;28;20042;-57
2023/09/28 21:50:44;;;;;;;5.85;3.45;;;;;;;19.89;64.21;100493.50;10422155;28;20053;-56
2023/09/28 21:55:45;;;;;;;4.88;3.10;;;;;;;19.83;64.54;100486.25;10424790;28;20076;-57
2023/09/28 22:00:47;;;;;;;4.63;2.85;;;;;;;19.76;64.62;100485.50;10426847;28;20040;-56
2023/09/28 22:05:52;;;;;;;4.13;2.88;;;;;;;19.67;64.74;100484.13;10425267;28;20132;-56
2023/09/28 22:10:54;;;;;;;6.03;3.13;;;;;;;19.64;64.72;100484.63;10418084;28;20056;-56
2023/09/28 22:15:55;;;;;;;5.90;3.42;;;;;;;19.58;64.67;100487.19;10418812;28;20512;-56
2023/09/28 22:20:57;;;;;;;6.28;3.05;;;;;;;19.47;64.98;100490.72;10423282;28;20049;-57
2023/09/28 22:25:58;;;;;;;7.00;3.58;;;;;;;19.48;65.02;100483.38;10423408;28;20067;-57
2023/09/28 22:31:00;;;;;;;4.93;3.30;;;;;;;19.50;65.02;100467.63;10424796;28;20060;-56
2023/09/28 22:36:01;;;;;;;6.88;3.25;;;;;;;19.53;65.17;100469.88;10425173;28;20059;-57
2023/09/28 22:41:03;;;;;;;5.93;3.20;;;;;;;19.53;65.23;100473.44;10430126;28;20044;-56
2023/09/28 22:46:05;;;;;;;4.90;3.10;;;;;;;19.46;65.01;100477.31;10421794;28;20075;-56
2023/09/28 22:51:06;;;;;;;5.47;3.25;;;;;;;19.44;65.18;100471.28;10421004;28;20122;-56
2023/09/28 22:56:08;;;;;;;4.70;3.38;;;;;;;19.40;65.21;100479.09;10423837;28;20044;-56
2023/09/28 23:01:09;;;;;;;4.53;3.22;;;;;;;19.31;65.63;100484.03;10416529;28;20049;-56